createdAt,value
2019-06-27T00:01:16.867Z,20.53
2019-06-27T00:03:46.183Z,20.46
2019-06-27T00:06:15.199Z,20.45
2019-06-27T00:08:43.999Z,20.41
2019-06-27T00:11:15.745Z,20.39
2019-06-27T00:13:45.299Z,20.38
2019-06-27T00:16:14.308Z,20.37
2019-06-27T00:18:43.896Z,20.33
2019-06-27T00:21:12.475Z,20.31
2019-06-27T00:23:41.166Z,20.22
2019-06-27T00:26:10.852Z,20.19
2019-06-27T00:28:39.567Z,20.20
2019-06-27T00:31:08.507Z,20.20
2019-06-27T00:33:39.195Z,20.18
2019-06-27T00:36:08.713Z,20.16
2019-06-27T00:38:37.697Z,20.13
2019-06-27T00:41:06.671Z,20.10
2019-06-27T00:43:35.577Z,20.10
2019-06-27T00:46:05.133Z,20.09
2019-06-27T00:48:34.799Z,20.05
2019-06-27T00:51:03.737Z,20.05
2019-06-27T00:53:33.357Z,20.00
2019-06-27T00:56:02.689Z,19.99
2019-06-27T00:58:31.636Z,20.02
2019-06-27T01:01:00.235Z,19.96
2019-06-27T01:03:30.590Z,19.97
2019-06-27T01:05:59.220Z,19.97
2019-06-27T01:08:28.170Z,19.91
2019-06-27T01:10:57.753Z,19.83
2019-06-27T01:13:26.771Z,19.86
2019-06-27T01:15:55.820Z,19.84
2019-06-27T01:18:25.514Z,19.84
2019-06-27T01:20:56.157Z,19.80
2019-06-27T01:23:25.781Z,19.79
2019-06-27T01:25:55.851Z,19.78
2019-06-27T01:28:24.725Z,19.73
2019-06-27T01:30:53.841Z,19.71
2019-06-27T01:33:22.853Z,19.69
2019-06-27T01:35:51.871Z,19.67
2019-06-27T01:38:21.371Z,19.66
2019-06-27T01:40:50.292Z,19.60
2019-06-27T01:43:20.255Z,19.60
2019-06-27T01:45:51.515Z,19.61
2019-06-27T01:48:21.364Z,19.57
2019-06-27T01:50:50.324Z,19.51
2019-06-27T01:53:21.559Z,19.48
2019-06-27T01:55:51.179Z,19.46
2019-06-27T01:58:20.230Z,19.51
2019-06-27T02:00:50.428Z,19.48
2019-06-27T02:03:20.803Z,19.43
2019-06-27T02:05:49.445Z,19.42
2019-06-27T02:08:19.017Z,19.41
2019-06-27T02:10:49.172Z,19.39
2019-06-27T02:13:19.392Z,19.37
2019-06-27T02:15:48.456Z,19.36
2019-06-27T02:18:17.110Z,19.29
2019-06-27T02:20:47.361Z,19.34
2019-06-27T02:23:16.631Z,19.32
2019-06-27T02:25:45.542Z,19.30
2019-06-27T02:28:14.499Z,19.29
2019-06-27T02:30:45.076Z,19.36
2019-06-27T02:33:14.740Z,19.32
2019-06-27T02:35:44.166Z,19.30
2019-06-27T02:38:13.950Z,19.32
2019-06-27T02:40:42.610Z,19.27
2019-06-27T02:43:14.049Z,19.28
2019-06-27T02:45:43.483Z,19.26
2019-06-27T02:48:13.013Z,19.32
2019-06-27T02:50:42.103Z,19.25
2019-06-27T02:53:10.952Z,19.23
2019-06-27T02:55:39.997Z,19.25
2019-06-27T02:58:28.926Z,19.28
2019-06-27T03:00:39.761Z,19.27
2019-06-27T03:03:09.601Z,19.29
2019-06-27T03:05:40.121Z,19.26
2019-06-27T03:08:09.152Z,19.28
2019-06-27T03:10:38.216Z,19.25
2019-06-27T03:13:07.835Z,19.25
2019-06-27T03:15:37.127Z,19.28
2019-06-27T03:18:06.180Z,19.28
2019-06-27T03:20:37.437Z,19.32
2019-06-27T03:23:06.953Z,19.36
2019-06-27T03:25:38.055Z,19.33
2019-06-27T03:28:06.699Z,19.31
2019-06-27T03:30:35.443Z,19.33
2019-06-27T03:33:04.141Z,19.32
2019-06-27T03:35:32.784Z,19.33
2019-06-27T03:38:01.661Z,19.41
2019-06-27T03:40:30.298Z,19.40
2019-06-27T03:42:58.981Z,19.47
2019-06-27T03:45:27.693Z,19.48
2019-06-27T03:47:56.331Z,19.53
2019-06-27T03:50:25.006Z,19.60
2019-06-27T03:52:54.431Z,19.82
2019-06-27T03:55:23.002Z,20.08
2019-06-27T03:57:51.629Z,20.25
2019-06-27T04:00:23.202Z,20.43
2019-06-27T04:02:51.827Z,20.55
2019-06-27T04:05:20.502Z,20.63
2019-06-27T04:07:49.139Z,20.68
2019-06-27T04:10:18.012Z,20.62
2019-06-27T04:12:46.771Z,20.57
2019-06-27T04:15:15.408Z,20.50
2019-06-27T04:17:44.053Z,20.38
2019-06-27T04:20:12.893Z,20.25
2019-06-27T04:22:41.530Z,20.17
2019-06-27T04:25:11.215Z,20.11
2019-06-27T04:27:39.946Z,20.05
2019-06-27T04:30:09.103Z,20.06
2019-06-27T04:32:39.277Z,20.12
2019-06-27T04:35:08.225Z,20.21
2019-06-27T04:37:37.684Z,20.27
2019-06-27T04:40:06.732Z,20.32
2019-06-27T04:42:35.388Z,20.39
2019-06-27T04:45:05.580Z,20.51
2019-06-27T04:47:34.203Z,20.57
2019-06-27T04:50:02.852Z,20.59
2019-06-27T04:52:32.853Z,20.71
2019-06-27T04:55:03.520Z,20.78
2019-06-27T04:57:31.799Z,20.91
2019-06-27T05:00:00.377Z,21.02
2019-06-27T05:02:30.662Z,21.07
2019-06-27T05:04:59.439Z,21.18
2019-06-27T05:07:28.088Z,21.28
2019-06-27T05:09:56.655Z,21.33
2019-06-27T05:12:26.887Z,21.40
2019-06-27T05:14:55.523Z,21.50
2019-06-27T05:17:24.161Z,21.64
2019-06-27T05:19:52.901Z,21.84
2019-06-27T05:22:21.471Z,22.00
2019-06-27T05:24:50.333Z,22.10
2019-06-27T05:27:19.075Z,22.24
2019-06-27T05:29:47.719Z,22.36
2019-06-27T05:32:17.121Z,22.51
2019-06-27T05:34:45.756Z,22.63
2019-06-27T05:37:14.394Z,22.76
2019-06-27T05:39:42.968Z,22.91
2019-06-27T05:42:11.584Z,23.02
2019-06-27T05:44:41.163Z,23.22
2019-06-27T05:47:09.797Z,23.43
2019-06-27T05:49:38.361Z,23.59
2019-06-27T05:52:07.394Z,23.77
2019-06-27T05:54:35.942Z,24.03
2019-06-27T05:57:04.594Z,24.28
2019-06-27T05:59:33.465Z,24.48
2019-06-27T06:02:02.177Z,24.70
2019-06-27T06:04:30.871Z,24.93
2019-06-27T06:06:59.516Z,25.19
2019-06-27T06:09:28.143Z,25.49
2019-06-27T06:11:56.823Z,25.69
2019-06-27T06:14:25.456Z,25.91
2019-06-27T06:16:54.019Z,26.05
2019-06-27T06:19:22.662Z,26.08
2019-06-27T06:21:51.306Z,26.19
2019-06-27T06:24:20.541Z,26.42
2019-06-27T06:26:49.181Z,26.56
2019-06-27T06:29:17.815Z,26.65
2019-06-27T06:31:49.207Z,26.81
2019-06-27T06:34:16.815Z,26.91
2019-06-27T06:36:45.446Z,26.93
2019-06-27T06:39:14.901Z,27.08
2019-06-27T06:41:43.529Z,27.24
2019-06-27T06:44:12.088Z,27.43
2019-06-27T06:46:40.785Z,27.59
2019-06-27T06:49:09.424Z,27.84
2019-06-27T06:51:38.058Z,27.99
2019-06-27T06:54:08.531Z,27.93
2019-06-27T06:56:37.162Z,28.20
2019-06-27T06:59:05.834Z,28.32
2019-06-27T07:01:34.457Z,28.49
2019-06-27T07:04:03.096Z,28.61
2019-06-27T07:06:31.787Z,28.66
2019-06-27T07:09:00.413Z,29.04
2019-06-27T07:11:29.053Z,29.11
2019-06-27T07:13:57.753Z,29.52
2019-06-27T07:16:26.438Z,29.89
2019-06-27T07:18:55.080Z,30.09
2019-06-27T07:21:23.652Z,30.30
2019-06-27T07:23:52.305Z,30.60
2019-06-27T07:26:22.405Z,30.86
2019-06-27T07:28:51.421Z,31.00
2019-06-27T07:31:20.082Z,31.26
2019-06-27T07:33:49.661Z,31.33
2019-06-27T07:36:18.305Z,31.24
2019-06-27T07:38:47.452Z,31.45
2019-06-27T07:41:16.161Z,31.79
2019-06-27T07:43:44.791Z,32.08
2019-06-27T07:46:24.442Z,32.07
2019-06-27T07:48:44.344Z,32.07
2019-06-27T07:51:12.978Z,32.13
2019-06-27T07:53:41.629Z,32.50
2019-06-27T07:56:10.265Z,32.77
2019-06-27T07:58:39.297Z,33.28
2019-06-27T08:01:08.037Z,34.20
2019-06-27T08:03:36.542Z,35.46
2019-06-27T08:06:05.378Z,36.93
2019-06-27T08:08:33.904Z,39.16
2019-06-27T08:11:02.537Z,40.36
2019-06-27T08:13:31.642Z,42.62
2019-06-27T08:16:00.265Z,45.19
2019-06-27T08:18:28.948Z,47.11
2019-06-27T08:20:57.587Z,48.52
2019-06-27T08:23:40.540Z,49.66
2019-06-27T08:25:56.710Z,50.55
2019-06-27T08:28:25.336Z,50.11
2019-06-27T08:30:53.897Z,50.15
2019-06-27T08:33:22.598Z,53.43
2019-06-27T08:35:51.230Z,52.69
2019-06-27T08:38:19.877Z,52.69
2019-06-27T08:40:48.421Z,54.18
2019-06-27T08:43:16.979Z,55.74
2019-06-27T08:45:45.658Z,55.44
2019-06-27T08:48:14.281Z,56.03
2019-06-27T08:50:42.832Z,58.69
2019-06-27T08:53:16.046Z,59.24
2019-06-27T08:55:44.686Z,59.95
2019-06-27T08:58:13.311Z,60.54
2019-06-27T09:00:44.931Z,59.27
2019-06-27T09:03:12.264Z,59.92
2019-06-27T09:05:40.907Z,59.77
2019-06-27T09:08:09.578Z,60.22
2019-06-27T09:10:38.205Z,59.71
2019-06-27T09:13:06.902Z,59.56
2019-06-27T09:15:35.560Z,60.15
2019-06-27T09:18:04.291Z,59.94
2019-06-27T09:20:32.937Z,57.28
2019-06-27T09:23:01.511Z,58.09
2019-06-27T09:25:30.874Z,58.59
2019-06-27T09:27:59.496Z,59.34
2019-06-27T09:30:28.184Z,59.19
2019-06-27T09:32:57.657Z,59.73
2019-06-27T09:35:26.332Z,59.63
2019-06-27T09:37:55.027Z,59.58
2019-06-27T09:40:24.006Z,58.48
2019-06-27T09:42:54.097Z,58.37
2019-06-27T09:45:23.223Z,58.36
2019-06-27T09:47:52.829Z,57.89
2019-06-27T09:50:22.362Z,57.74
2019-06-27T09:52:50.981Z,58.55
2019-06-27T09:55:20.566Z,59.99
2019-06-27T09:57:49.352Z,59.49
2019-06-27T10:00:19.685Z,59.08
2019-06-27T10:02:48.336Z,60.32
2019-06-27T10:05:17.211Z,60.81
2019-06-27T10:07:45.889Z,61.63
2019-06-27T10:10:16.160Z,61.24
2019-06-27T10:12:44.819Z,62.46
2019-06-27T10:15:13.968Z,62.37
2019-06-27T10:17:42.584Z,64.66
2019-06-27T10:20:11.299Z,63.71
2019-06-27T10:22:39.969Z,63.58
2019-06-27T10:25:09.665Z,62.88
2019-06-27T10:27:38.302Z,62.87
2019-06-27T10:30:08.240Z,62.82
2019-06-27T10:32:36.874Z,61.66
2019-06-27T10:35:10.172Z,58.75
2019-06-27T10:37:38.808Z,57.32
2019-06-27T10:40:08.439Z,56.78
2019-06-27T10:42:37.011Z,56.55
2019-06-27T10:45:07.611Z,56.22
2019-06-27T10:47:36.260Z,55.23
2019-06-27T10:50:05.982Z,55.20
2019-06-27T10:52:34.556Z,54.01
2019-06-27T10:55:03.950Z,52.59
2019-06-27T10:57:32.566Z,50.11
2019-06-27T11:00:01.202Z,48.28
2019-06-27T11:02:29.841Z,45.54
2019-06-27T11:04:58.480Z,43.41
2019-06-27T11:07:27.888Z,41.08
2019-06-27T11:09:56.449Z,39.19
2019-06-27T11:12:25.012Z,38.04
2019-06-27T11:14:58.986Z,36.94
2019-06-27T11:17:24.536Z,36.16
2019-06-27T11:19:53.121Z,35.41
2019-06-27T11:22:21.735Z,35.02
2019-06-27T11:24:50.349Z,34.33
2019-06-27T11:27:19.031Z,33.77
2019-06-27T11:29:47.635Z,33.32
2019-06-27T11:32:16.259Z,32.80
2019-06-27T11:34:44.864Z,32.48
2019-06-27T11:37:13.424Z,32.28
2019-06-27T11:39:42.057Z,31.99
2019-06-27T11:42:12.284Z,32.10
2019-06-27T11:44:40.915Z,32.16
2019-06-27T11:47:10.776Z,31.98
2019-06-27T11:49:39.455Z,31.84
2019-06-27T11:52:08.097Z,31.76
2019-06-27T11:54:38.974Z,31.77
2019-06-27T11:57:07.702Z,31.77
2019-06-27T11:59:36.353Z,31.74
2019-06-27T12:02:05.151Z,31.69
2019-06-27T12:04:33.760Z,31.58
2019-06-27T12:07:02.952Z,31.48
2019-06-27T12:09:31.689Z,31.37
2019-06-27T12:12:00.312Z,31.29
2019-06-27T12:14:29.480Z,31.28
2019-06-27T12:16:58.200Z,31.32
2019-06-27T12:19:26.838Z,31.33
2019-06-27T12:21:55.484Z,31.31
2019-06-27T12:24:24.122Z,31.24
2019-06-27T12:26:54.460Z,31.06
2019-06-27T12:29:23.093Z,31.03
2019-06-27T12:31:51.947Z,31.02
2019-06-27T12:34:21.194Z,31.01
2019-06-27T12:36:49.820Z,31.02
2019-06-27T12:39:18.465Z,31.02
2019-06-27T12:41:47.174Z,31.12
2019-06-27T12:44:15.832Z,31.24
2019-06-27T12:46:44.510Z,31.14
2019-06-27T12:49:13.078Z,31.21
2019-06-27T12:51:41.707Z,31.24
2019-06-27T12:54:10.494Z,31.30
2019-06-27T12:56:39.149Z,31.27
2019-06-27T12:59:07.789Z,31.26
2019-06-27T13:01:37.302Z,31.18
2019-06-27T13:04:19.104Z,31.19
2019-06-27T13:06:36.312Z,31.20
2019-06-27T13:09:05.987Z,31.30
2019-06-27T13:11:34.635Z,31.29
2019-06-27T13:14:03.204Z,31.26
2019-06-27T13:16:32.652Z,31.25
2019-06-27T13:19:01.270Z,31.08
2019-06-27T13:21:29.908Z,31.04
2019-06-27T13:23:58.541Z,30.93
2019-06-27T13:26:27.171Z,30.84
2019-06-27T13:28:55.853Z,30.90
2019-06-27T13:31:24.492Z,30.90
2019-06-27T13:33:53.130Z,30.95
2019-06-27T13:36:21.775Z,30.98
2019-06-27T13:38:50.398Z,30.96
2019-06-27T13:41:19.041Z,31.03
2019-06-27T13:43:49.315Z,30.90
2019-06-27T13:46:18.180Z,30.93
2019-06-27T13:48:46.807Z,30.99
2019-06-27T13:51:15.428Z,31.00
2019-06-27T13:53:44.114Z,31.05
2019-06-27T13:56:13.579Z,31.04
2019-06-27T13:58:42.281Z,31.02
2019-06-27T14:01:11.161Z,30.86
2019-06-27T14:03:49.319Z,30.90
2019-06-27T14:06:10.194Z,30.97
2019-06-27T14:08:39.691Z,30.96
2019-06-27T14:11:08.328Z,30.82
2019-06-27T14:13:36.980Z,30.91
2019-06-27T14:16:07.278Z,30.95
2019-06-27T14:18:35.896Z,30.92
2019-06-27T14:21:04.540Z,30.96
2019-06-27T14:23:33.106Z,30.93
2019-06-27T14:26:01.749Z,30.93
2019-06-27T14:28:30.433Z,30.90
2019-06-27T14:30:59.082Z,30.83
2019-06-27T14:33:27.712Z,30.81
2019-06-27T14:35:57.985Z,30.80
2019-06-27T14:38:27.650Z,30.81
2019-06-27T14:40:58.933Z,30.82
2019-06-27T14:43:27.644Z,30.80
2019-06-27T14:45:56.271Z,30.70
2019-06-27T14:48:24.945Z,30.65
2019-06-27T14:50:53.504Z,30.67
2019-06-27T14:53:22.159Z,30.64
2019-06-27T14:55:51.577Z,30.61
2019-06-27T14:58:20.227Z,30.60
2019-06-27T15:00:48.918Z,30.60
2019-06-27T15:03:17.574Z,30.58
2019-06-27T15:05:46.274Z,30.59
2019-06-27T15:08:16.626Z,30.60
2019-06-27T15:10:45.261Z,30.56
2019-06-27T15:13:13.920Z,30.56
2019-06-27T15:15:44.596Z,30.54
2019-06-27T15:18:16.570Z,30.54
2019-06-27T15:20:44.012Z,30.52
2019-06-27T15:23:12.651Z,30.50
2019-06-27T15:25:42.070Z,30.49
2019-06-27T15:28:10.745Z,30.46
2019-06-27T15:30:39.458Z,30.39
2019-06-27T15:33:09.171Z,30.40
2019-06-27T15:35:51.662Z,30.37
2019-06-27T15:38:09.747Z,30.37
2019-06-27T15:40:38.384Z,30.36
2019-06-27T15:43:07.040Z,30.39
2019-06-27T15:45:35.673Z,30.39
2019-06-27T15:48:04.432Z,30.31
2019-06-27T15:50:33.005Z,30.32
2019-06-27T15:53:01.707Z,30.32
2019-06-27T15:55:31.285Z,30.34
2019-06-27T15:57:59.841Z,30.32
2019-06-27T16:00:28.482Z,30.18
2019-06-27T16:02:57.117Z,30.09
2019-06-27T16:05:25.859Z,30.05
2019-06-27T16:07:54.604Z,30.05
2019-06-27T16:10:23.938Z,30.04
2019-06-27T16:12:52.571Z,30.02
2019-06-27T16:15:21.241Z,29.86
2019-06-27T16:17:49.870Z,29.99
2019-06-27T16:20:20.487Z,30.10
2019-06-27T16:22:49.120Z,30.07
2019-06-27T16:25:18.050Z,30.13
2019-06-27T16:27:46.673Z,30.16
2019-06-27T16:30:15.854Z,30.09
2019-06-27T16:32:44.499Z,30.04
2019-06-27T16:35:13.216Z,30.00
2019-06-27T16:37:42.466Z,29.97
2019-06-27T16:40:11.601Z,29.95
2019-06-27T16:42:40.248Z,29.97
2019-06-27T16:45:10.602Z,29.95
2019-06-27T16:47:39.236Z,29.97
2019-06-27T16:50:10.688Z,30.01
2019-06-27T16:52:39.343Z,30.04
2019-06-27T16:55:08.875Z,29.99
2019-06-27T16:57:38.911Z,30.00
2019-06-27T17:00:09.015Z,30.00
2019-06-27T17:02:37.707Z,30.02
2019-06-27T17:05:06.751Z,29.96
2019-06-27T17:07:35.396Z,29.86
2019-06-27T17:10:05.875Z,29.89
2019-06-27T17:12:34.510Z,29.91
2019-06-27T17:15:03.548Z,29.89
2019-06-27T17:17:32.235Z,29.77
2019-06-27T17:20:00.876Z,29.72
2019-06-27T17:22:29.510Z,29.67
2019-06-27T17:24:58.269Z,29.61
2019-06-27T17:27:26.999Z,29.55
2019-06-27T17:29:55.795Z,29.50
2019-06-27T17:32:24.378Z,29.45
2019-06-27T17:34:53.156Z,29.34
2019-06-27T17:37:22.313Z,29.27
2019-06-27T17:39:50.986Z,29.17
2019-06-27T17:42:20.268Z,29.12
2019-06-27T17:44:50.403Z,29.00
2019-06-27T17:47:19.028Z,28.82
2019-06-27T17:49:49.157Z,28.69
2019-06-27T17:52:18.083Z,28.55
2019-06-27T17:54:46.720Z,28.39
2019-06-27T17:57:15.419Z,28.30
2019-06-27T17:59:43.996Z,28.15
2019-06-27T18:02:12.614Z,28.01
2019-06-27T18:04:41.272Z,27.85
2019-06-27T18:07:14.784Z,27.77
2019-06-27T18:09:42.058Z,27.58
2019-06-27T18:12:11.224Z,27.51
2019-06-27T18:14:39.863Z,27.40
2019-06-27T18:17:09.341Z,27.27
2019-06-27T18:19:37.998Z,27.17
2019-06-27T18:22:06.624Z,27.07
2019-06-27T18:24:35.272Z,26.92
2019-06-27T18:27:03.834Z,26.86
2019-06-27T18:29:32.990Z,26.77
2019-06-27T18:32:01.699Z,26.69
2019-06-27T18:34:30.262Z,26.61
2019-06-27T18:36:59.318Z,26.58
2019-06-27T18:39:27.961Z,26.51
2019-06-27T18:41:56.678Z,26.37
2019-06-27T18:44:25.416Z,26.36
2019-06-27T18:46:54.068Z,26.30
2019-06-27T18:49:22.949Z,26.20
2019-06-27T18:51:51.620Z,26.14
2019-06-27T18:54:20.306Z,26.08
2019-06-27T18:56:49.133Z,26.01
2019-06-27T18:59:17.905Z,25.95
2019-06-27T19:01:46.540Z,25.90
2019-06-27T19:04:15.357Z,25.82
2019-06-27T19:06:44.275Z,25.75
2019-06-27T19:09:13.030Z,25.69
2019-06-27T19:11:41.657Z,25.64
2019-06-27T19:14:10.298Z,25.58
2019-06-27T19:16:38.977Z,25.54
2019-06-27T19:19:09.251Z,25.44
2019-06-27T19:21:42.661Z,25.40
2019-06-27T19:24:15.927Z,25.33
2019-06-27T19:26:45.635Z,25.25
2019-06-27T19:29:14.266Z,25.22
2019-06-27T19:31:42.976Z,25.12
2019-06-27T19:34:11.612Z,25.04
2019-06-27T19:36:40.345Z,24.98
2019-06-27T19:39:08.991Z,24.91
2019-06-27T19:41:37.688Z,24.88
2019-06-27T19:44:06.512Z,24.83
2019-06-27T19:46:35.110Z,24.76
2019-06-27T19:49:03.850Z,24.74
2019-06-27T19:51:34.034Z,24.66
2019-06-27T19:54:02.606Z,24.48
2019-06-27T19:56:31.256Z,24.49
2019-06-27T19:59:00.675Z,24.40
2019-06-27T20:01:29.308Z,24.34
2019-06-27T20:03:57.966Z,24.30
2019-06-27T20:06:26.601Z,24.24
2019-06-27T20:08:55.233Z,24.16
2019-06-27T20:11:23.920Z,24.10
2019-06-27T20:13:52.559Z,24.07
2019-06-27T20:16:22.143Z,23.99
2019-06-27T20:18:51.090Z,23.96
2019-06-27T20:21:19.727Z,23.88
2019-06-27T20:23:48.374Z,23.77
2019-06-27T20:26:17.032Z,23.81
2019-06-27T20:28:45.654Z,23.75
2019-06-27T20:31:15.217Z,23.69
2019-06-27T20:33:43.796Z,23.69
2019-06-27T20:36:12.438Z,23.57
2019-06-27T20:38:41.143Z,23.51
2019-06-27T20:41:09.780Z,23.47
2019-06-27T20:43:38.409Z,23.42
2019-06-27T20:46:07.047Z,23.39
2019-06-27T20:48:35.683Z,23.33
2019-06-27T20:51:04.350Z,23.30
2019-06-27T20:53:32.986Z,23.26
2019-06-27T20:56:01.620Z,23.17
2019-06-27T20:58:31.963Z,23.11
2019-06-27T21:01:00.604Z,23.13
2019-06-27T21:03:29.257Z,23.08
2019-06-27T21:05:57.882Z,23.02
2019-06-27T21:08:26.446Z,22.95
2019-06-27T21:10:55.999Z,22.94
2019-06-27T21:13:24.643Z,22.97
2019-06-27T21:15:53.272Z,22.94
2019-06-27T21:18:22.037Z,22.92
2019-06-27T21:20:50.668Z,22.92
2019-06-27T21:23:19.305Z,22.92
2019-06-27T21:25:47.917Z,22.88
2019-06-27T21:28:16.551Z,22.86
2019-06-27T21:30:46.134Z,22.88
2019-06-27T21:33:14.850Z,22.91
2019-06-27T21:35:43.549Z,22.93
2019-06-27T21:38:12.160Z,22.98
2019-06-27T21:40:40.795Z,22.95
2019-06-27T21:43:09.443Z,22.96
2019-06-27T21:45:38.088Z,22.89
2019-06-27T21:48:06.737Z,22.92
2019-06-27T21:50:36.915Z,22.87
2019-06-27T21:53:05.550Z,22.81
2019-06-27T21:55:34.181Z,22.84
2019-06-27T21:58:02.871Z,22.80
2019-06-27T22:00:33.147Z,22.78
2019-06-27T22:03:01.807Z,22.77
2019-06-27T22:05:30.566Z,22.73
2019-06-27T22:07:59.205Z,22.68
2019-06-27T22:10:27.887Z,22.65
2019-06-27T22:12:56.582Z,22.65
2019-06-27T22:15:25.350Z,22.68
2019-06-27T22:17:54.301Z,22.61
2019-06-27T22:20:23.830Z,22.63
2019-06-27T22:22:52.477Z,22.63
2019-06-27T22:25:21.118Z,22.57
2019-06-27T22:27:49.749Z,22.56
2019-06-27T22:30:19.605Z,22.52
2019-06-27T22:32:48.255Z,22.48
2019-06-27T22:35:17.503Z,22.53
2019-06-27T22:38:04.280Z,22.48
2019-06-27T22:40:50.713Z,22.43
2019-06-27T22:43:37.334Z,22.36
2019-06-27T22:46:24.006Z,22.28
2019-06-27T22:48:52.886Z,22.29
2019-06-27T22:51:40.318Z,22.25
2019-06-27T22:54:13.249Z,22.27
2019-06-27T22:56:41.890Z,22.18
2019-06-27T22:59:10.542Z,22.20
2019-06-27T23:32:20.018Z,22.16
2019-06-27T23:34:48.648Z,22.16
2019-06-27T23:37:17.307Z,22.11
2019-06-27T23:39:45.993Z,22.09
2019-06-27T23:42:14.553Z,21.98
2019-06-27T23:44:43.187Z,21.90
2019-06-27T23:47:11.827Z,21.88
2019-06-27T23:49:40.533Z,21.84
2019-06-27T23:52:09.869Z,21.83
2019-06-27T23:54:38.440Z,21.79
2019-06-27T23:57:07.010Z,21.81
2019-06-27T23:59:35.692Z,21.76
